Time;durP1;ratioP1;P1;durP2;ratioP2;P2;SDS_P1;SDS_P2;PMS_P1;PMS_P2;Temp;Humidity;BMP_temperature;BMP_pressure;BME280_temperature;BME280_humidity;BME280_pressure;Samples;Min_cycle;Max_cycle;Signal;HPM_P1;HPM_P2
2023/09/02 00:00:05;;;;;;;2.35;2.00;;;15.90;1.00;;;;;;5083216;28;20504;-81
2023/09/02 00:02:31;;;;;;;3.45;2.10;;;16.00;1.00;;;;;;5094402;28;20386;-81
2023/09/02 00:04:57;;;;;;;2.70;1.90;;;15.90;1.00;;;;;;5110685;28;20389;-81
2023/09/02 00:07:22;;;;;;;1.90;1.70;;;15.90;1.00;;;;;;5108551;28;20408;-81
2023/09/02 00:09:48;;;;;;;3.05;1.92;;;15.90;1.00;;;;;;5107800;28;20473;-81
2023/09/02 00:12:14;;;;;;;4.50;2.03;;;15.90;1.00;;;;;;5104442;28;20398;-81
2023/09/02 00:14:39;;;;;;;3.63;1.80;;;15.90;1.00;;;;;;5093597;28;20465;-81
2023/09/02 00:17:05;;;;;;;2.58;1.90;;;15.90;1.00;;;;;;5072451;28;20416;-82
2023/09/02 00:19:30;;;;;;;4.83;2.20;;;15.90;1.00;;;;;;5071896;28;20384;-82
2023/09/02 00:21:56;;;;;;;2.30;1.80;;;16.00;1.00;;;;;;5072901;28;20388;-81
2023/09/02 00:24:21;;;;;;;2.50;2.00;;;15.80;1.00;;;;;;5072533;28;20395;-81
2023/09/02 00:26:47;;;;;;;3.70;2.20;;;15.80;1.00;;;;;;5073685;28;20395;-80
2023/09/02 00:29:12;;;;;;;2.33;2.05;;;15.80;1.00;;;;;;5090800;28;20405;-81
2023/09/02 00:31:38;;;;;;;2.88;2.60;;;15.70;1.00;;;;;;5093978;28;20887;-81
2023/09/02 00:34:03;;;;;;;3.30;2.10;;;15.70;1.00;;;;;;5092751;28;20918;-81
2023/09/02 00:36:30;;;;;;;2.45;1.80;;;15.70;1.00;;;;;;5091851;28;20385;-81
2023/09/02 00:38:59;;;;;;;2.30;1.95;;;15.80;1.00;;;;;;5092155;28;20397;-82
2023/09/02 00:41:39;;;;;;;3.35;1.80;;;15.80;1.00;;;;;;5073742;28;20488;-81
2023/09/02 00:44:05;;;;;;;4.53;2.40;;;15.80;1.00;;;;;;5089616;28;20390;-81
2023/09/02 00:46:31;;;;;;;2.97;2.10;;;15.70;1.00;;;;;;5093746;28;20417;-81
2023/09/02 00:48:57;;;;;;;6.17;2.30;;;15.70;1.00;;;;;;5094867;28;20394;-81
2023/09/02 00:51:22;;;;;;;2.80;1.97;;;15.70;1.00;;;;;;5096084;28;20451;-81
2023/09/02 00:53:48;;;;;;;3.00;2.03;;;15.60;1.00;;;;;;5096756;28;20431;-81
2023/09/02 00:56:15;;;;;;;3.57;2.10;;;15.60;1.00;;;;;;5097401;28;20480;-81
2023/09/02 00:58:41;;;;;;;4.65;2.20;;;15.60;1.00;;;;;;5097578;28;20385;-81
2023/09/02 01:01:08;;;;;;;2.88;2.00;;;15.50;1.00;;;;;;5095188;28;20390;-81
2023/09/02 01:03:37;;;;;;;3.50;2.00;;;15.50;1.00;;;;;;5097071;28;20390;-80
2023/09/02 01:06:03;;;;;;;3.10;1.80;;;15.50;1.00;;;;;;5094832;28;20382;-81
2023/09/02 01:08:30;;;;;;;2.00;1.80;;;15.50;1.00;;;;;;5096315;28;20761;-81
2023/09/02 01:10:58;;;;;;;3.33;2.17;;;15.50;1.00;;;;;;5096271;28;20390;-81
2023/09/02 01:13:23;;;;;;;3.88;2.00;;;15.50;1.00;;;;;;5096395;28;20377;-81
2023/09/02 01:15:49;;;;;;;3.30;1.80;;;15.40;1.00;;;;;;5096389;28;20465;-82
2023/09/02 01:18:16;;;;;;;2.13;1.93;;;15.40;1.00;;;;;;5094646;28;20901;-81
2023/09/02 01:21:03;;;;;;;2.72;1.95;;;15.30;1.00;;;;;;5094850;28;20390;-81
2023/09/02 01:24:04;;;;;;;3.00;2.00;;;15.40;1.00;;;;;;5095393;28;20739;-81
2023/09/02 01:27:07;;;;;;;2.95;1.70;;;15.40;1.00;;;;;;5094519;28;20386;-81
2023/09/02 01:29:59;;;;;;;3.80;2.20;;;15.30;1.00;;;;;;5096576;28;20978;-81
2023/09/02 01:32:31;;;;;;;3.30;1.70;;;15.30;1.00;;;;;;5093853;28;20439;-81
2023/09/02 01:34:57;;;;;;;4.10;1.90;;;15.20;1.00;;;;;;5095002;28;20393;-81
2023/09/02 01:37:25;;;;;;;2.28;1.70;;;15.30;1.00;;;;;;5094723;28;20386;-81
2023/09/02 01:39:52;;;;;;;2.47;1.80;;;15.30;1.00;;;;;;5094738;28;20393;-86
2023/09/02 01:42:18;;;;;;;2.38;2.00;;;15.20;1.00;;;;;;5095952;28;20396;-86
2023/09/02 01:44:44;;;;;;;2.30;1.60;;;14.40;1.00;;;;;;5076118;28;20384;-85
2023/09/02 01:47:12;;;;;;;2.78;1.90;;;15.20;1.00;;;;;;5081065;28;20417;-85
2023/09/02 01:49:38;;;;;;;2.00;1.80;;;15.20;1.00;;;;;;5095254;28;20394;-86
2023/09/02 01:52:04;;;;;;;3.10;2.10;;;15.30;1.00;;;;;;5095699;28;20386;-85
2023/09/02 01:54:31;;;;;;;2.50;1.60;;;15.20;1.00;;;;;;5094969;28;20874;-86
2023/09/02 01:56:57;;;;;;;3.40;2.00;;;15.10;1.00;;;;;;5096624;28;20397;-85
2023/09/02 01:59:22;;;;;;;3.08;2.20;;;15.20;1.00;;;;;;5095201;28;20598;-85
2023/09/02 02:01:48;;;;;;;3.25;2.20;;;15.30;1.00;;;;;;5093563;28;20427;-85
2023/09/02 02:04:30;;;;;;;1.80;1.70;;;15.20;1.00;;;;;;5095427;28;20435;-85
2023/09/02 02:07:01;;;;;;;2.53;1.80;;;15.20;1.00;;;;;;5076728;28;20395;-85
2023/09/02 02:09:37;;;;;;;2.30;2.10;;;15.20;1.00;;;;;;5075979;28;20404;-85
2023/09/02 02:12:04;;;;;;;3.05;1.90;;;15.20;1.00;;;;;;5079036;28;20652;-86
2023/09/02 02:14:33;;;;;;;3.40;1.90;;;15.10;1.00;;;;;;5078883;28;20876;-86
2023/09/02 02:16:59;;;;;;;2.00;1.80;;;15.50;1.00;;;;;;5158483;22;20382;-80
2023/09/02 02:19:25;;;;;;;2.10;1.90;;;15.10;1.00;;;;;;5091037;28;20383;-81
2023/09/02 02:21:51;;;;;;;6.43;2.00;;;15.10;1.00;;;;;;5095979;28;20385;-82
2023/09/02 02:24:16;;;;;;;3.15;2.10;;;15.00;1.00;;;;;;5095901;28;20392;-82
2023/09/02 02:26:42;;;;;;;3.30;2.00;;;15.00;1.00;;;;;;5095908;28;20432;-82
2023/09/02 02:29:07;;;;;;;2.17;1.73;;;15.10;1.00;;;;;;5094544;28;20401;-81
2023/09/02 02:31:34;;;;;;;3.67;2.07;;;15.20;1.00;;;;;;5095170;28;20386;-81
2023/09/02 02:34:00;;;;;;;3.50;2.10;;;15.10;1.00;;;;;;5094378;28;20385;-82
2023/09/02 02:36:25;;;;;;;2.17;1.80;;;15.00;1.00;;;;;;5079884;28;20747;-81
2023/09/02 02:38:51;;;;;;;3.67;2.00;;;14.90;1.00;;;;;;5075346;28;20388;-82
2023/09/02 02:41:16;;;;;;;1.90;1.60;;;14.90;1.00;;;;;;5075405;28;20426;-82
2023/09/02 02:43:42;;;;;;;2.28;1.98;;;14.90;1.00;;;;;;5075713;28;20848;-81
2023/09/02 02:46:07;;;;;;;2.20;2.00;;;14.90;1.00;;;;;;5076000;28;20764;-81
2023/09/02 02:48:33;;;;;;;2.20;1.90;;;14.90;1.00;;;;;;5074752;28;20549;-81
2023/09/02 02:50:58;;;;;;;3.95;1.70;;;14.90;1.00;;;;;;5084726;28;20402;-81
2023/09/02 02:53:24;;;;;;;3.50;2.00;;;14.90;1.00;;;;;;5094890;28;20382;-81
2023/09/02 02:55:50;;;;;;;2.00;1.70;;;14.90;1.00;;;;;;5094261;28;20390;-81
2023/09/02 02:58:16;;;;;;;2.20;2.00;;;14.90;1.00;;;;;;5092530;28;20410;-81
2023/09/02 03:00:43;;;;;;;3.50;1.90;;;14.90;1.00;;;;;;5092680;28;20461;-81
2023/09/02 03:03:09;;;;;;;2.57;1.83;;;14.90;1.00;;;;;;5077679;28;20392;-82
2023/09/02 03:05:39;;;;;;;4.05;2.20;;;15.00;1.00;;;;;;5073976;28;20399;-82
2023/09/02 03:08:09;;;;;;;2.70;1.60;;;15.00;1.00;;;;;;5074223;28;20395;-81
2023/09/02 03:10:35;;;;;;;2.47;1.95;;;14.90;1.00;;;;;;5074838;28;20454;-81
2023/09/02 03:13:05;;;;;;;2.95;1.85;;;15.00;1.00;;;;;;5072511;28;20475;-81
2023/09/02 03:15:31;;;;;;;4.88;1.90;;;14.90;1.00;;;;;;5083135;28;20393;-81
2023/09/02 03:17:57;;;;;;;3.50;1.92;;;14.90;1.00;;;;;;5093503;28;20378;-81
2023/09/02 03:20:22;;;;;;;2.05;1.85;;;15.00;1.00;;;;;;5092206;28;20413;-81
2023/09/02 03:22:48;;;;;;;2.55;1.90;;;14.90;1.00;;;;;;5092500;28;20405;-81
2023/09/02 03:25:13;;;;;;;3.10;1.97;;;14.90;1.00;;;;;;5092250;28;20394;-82
2023/09/02 03:27:39;;;;;;;3.15;1.92;;;14.90;1.00;;;;;;5093400;28;20388;-82
2023/09/02 03:30:09;;;;;;;2.33;1.60;;;14.90;1.00;;;;;;5082597;28;20439;-81
2023/09/02 03:32:35;;;;;;;2.80;2.20;;;14.90;1.00;;;;;;5074272;28;20384;-81
2023/09/02 03:35:00;;;;;;;3.50;1.80;;;14.80;1.00;;;;;;5074352;28;20434;-82
2023/09/02 03:37:27;;;;;;;4.30;2.10;;;14.80;1.00;;;;;;5075902;28;20747;-81
2023/09/02 03:39:55;;;;;;;2.58;2.00;;;14.70;1.00;;;;;;5075392;28;20971;-81
2023/09/02 03:42:21;;;;;;;3.88;1.77;;;14.60;1.00;;;;;;5080548;28;20407;-82
2023/09/02 03:44:47;;;;;;;2.23;2.00;;;14.60;1.00;;;;;;5076213;28;20396;-81
2023/09/02 03:47:12;;;;;;;3.83;1.80;;;14.60;1.00;;;;;;5074273;28;20455;-81
2023/09/02 03:49:38;;;;;;;2.03;1.80;;;14.60;1.00;;;;;;5079376;28;20410;-81
2023/09/02 03:52:03;;;;;;;5.97;1.90;;;14.60;1.00;;;;;;5103901;28;20386;-79
2023/09/02 03:54:29;;;;;;;3.90;2.10;;;14.60;1.00;;;;;;5108830;28;20374;-79
2023/09/02 03:56:54;;;;;;;2.40;1.60;;;14.60;1.00;;;;;;5108165;28;20386;-80
2023/09/02 03:59:20;;;;;;;3.00;1.83;;;14.60;1.00;;;;;;5104483;28;20533;-80
2023/09/02 04:01:46;;;;;;;2.25;1.85;;;14.60;1.00;;;;;;5088121;28;20380;-79
2023/09/02 04:04:11;;;;;;;3.10;2.20;;;14.60;1.00;;;;;;5087444;28;20444;-79
2023/09/02 04:06:38;;;;;;;3.97;2.10;;;14.70;1.00;;;;;;5088713;28;20395;-79
2023/09/02 04:09:08;;;;;;;2.88;1.80;;;14.60;1.00;;;;;;5087916;28;20450;-79
2023/09/02 04:11:33;;;;;;;2.63;1.63;;;14.70;1.00;;;;;;5086252;28;20403;-80
2023/09/02 04:14:00;;;;;;;2.83;1.70;;;14.70;1.00;;;;;;5078338;28;20384;-81
2023/09/02 04:16:26;;;;;;;2.40;1.80;;;14.60;1.00;;;;;;5083346;28;20389;-81
2023/09/02 04:18:52;;;;;;;2.77;2.10;;;14.70;1.00;;;;;;5093928;28;20429;-81
2023/09/02 04:21:17;;;;;;;3.00;1.80;;;13.70;1.00;;;;;;5095230;28;20397;-80
2023/09/02 04:23:43;;;;;;;2.90;1.70;;;14.60;1.00;;;;;;5076533;28;20427;-81
2023/09/02 04:26:09;;;;;;;3.42;2.13;;;14.60;1.00;;;;;;5082612;28;20395;-80
2023/09/02 04:28:34;;;;;;;5.47;2.03;;;14.70;1.00;;;;;;5073807;28;20402;-81
2023/09/02 04:31:00;;;;;;;2.30;2.10;;;14.60;1.00;;;;;;5084933;28;20400;-81
2023/09/02 04:33:26;;;;;;;3.90;1.87;;;14.50;1.00;;;;;;5082953;28;20399;-80
2023/09/02 04:35:51;;;;;;;4.22;1.80;;;14.50;1.00;;;;;;5093370;28;20407;-80
2023/09/02 04:38:17;;;;;;;2.28;1.80;;;14.50;1.00;;;;;;5095026;28;20385;-80
2023/09/02 04:40:44;;;;;;;3.17;1.90;;;14.50;1.00;;;;;;5095037;28;20916;-81
2023/09/02 04:43:11;;;;;;;2.70;2.15;;;14.60;1.00;;;;;;5086437;28;20387;-81
2023/09/02 04:45:42;;;;;;;3.15;2.03;;;14.70;1.00;;;;;;5074515;28;20462;-81
2023/09/02 04:48:09;;;;;;;2.70;2.05;;;14.70;1.00;;;;;;5053284;28;20389;-80
2023/09/02 04:50:35;;;;;;;3.15;1.90;;;14.60;1.00;;;;;;5052813;28;20415;-81
2023/09/02 04:53:01;;;;;;;2.60;1.90;;;14.50;1.00;;;;;;5057392;28;20417;-81
2023/09/02 04:55:28;;;;;;;2.97;2.03;;;14.60;1.00;;;;;;5095124;28;20374;-81
2023/09/02 04:57:55;;;;;;;2.40;1.80;;;14.70;1.00;;;;;;5093587;28;20386;-81
2023/09/02 05:00:26;;;;;;;2.10;1.60;;;14.70;1.00;;;;;;5091564;28;20382;-81
2023/09/02 05:02:52;;;;;;;2.10;1.70;;;14.70;1.00;;;;;;5092128;28;20435;-81
2023/09/02 05:05:19;;;;;;;4.53;1.73;;;14.60;1.00;;;;;;5094182;28;20398;-81
2023/09/02 05:07:45;;;;;;;3.80;2.00;;;14.70;1.00;;;;;;5094315;28;20473;-81
2023/09/02 05:10:15;;;;;;;3.90;2.10;;;14.80;1.00;;;;;;5092608;28;20398;-82
2023/09/02 05:12:41;;;;;;;2.70;1.80;;;14.80;1.00;;;;;;5082768;28;20410;-82
2023/09/02 05:15:07;;;;;;;3.17;1.93;;;14.80;1.00;;;;;;5072770;28;20380;-81
2023/09/02 05:17:33;;;;;;;3.17;1.80;;;14.80;1.00;;;;;;5073521;28;20388;-81
2023/09/02 05:20:00;;;;;;;4.10;2.00;;;14.70;1.00;;;;;;5073688;28;20890;-81
2023/09/02 05:22:25;;;;;;;2.53;2.17;;;15.00;1.00;;;;;;5077373;28;20466;-82
2023/09/02 05:24:51;;;;;;;1.80;1.70;;;15.00;1.00;;;;;;5093411;28;20991;-82
2023/09/02 05:27:17;;;;;;;2.63;2.10;;;14.90;1.00;;;;;;5087054;28;20441;-81
2023/09/02 05:29:42;;;;;;;2.80;1.90;;;14.90;1.00;;;;;;5085558;28;20773;-81
2023/09/02 05:32:09;;;;;;;2.00;1.80;;;15.00;1.00;;;;;;5092845;28;20439;-81
2023/09/02 05:34:35;;;;;;;2.40;1.80;;;15.10;1.00;;;;;;5094150;28;20385;-81
2023/09/02 05:37:02;;;;;;;2.70;1.70;;;15.10;1.00;;;;;;5096941;28;20419;-81
2023/09/02 05:39:28;;;;;;;3.20;2.07;;;15.10;1.00;;;;;;5080849;28;20396;-82
2023/09/02 05:41:53;;;;;;;3.13;2.00;;;15.20;1.00;;;;;;5084634;28;20939;-82
2023/09/02 05:44:19;;;;;;;2.17;1.60;;;15.30;1.00;;;;;;5077924;28;20379;-82
2023/09/02 05:46:44;;;;;;;3.60;1.90;;;15.30;1.00;;;;;;5076891;28;20392;-82
2023/09/02 05:49:10;;;;;;;1.83;1.60;;;15.30;1.00;;;;;;5075670;28;20404;-80
2023/09/02 05:51:36;;;;;;;2.30;2.10;;;15.30;1.00;;;;;;5076056;28;20411;-81
2023/09/02 05:54:02;;;;;;;3.00;2.00;;;15.50;1.00;;;;;;5084366;28;20390;-81
2023/09/02 05:56:27;;;;;;;1.88;1.67;;;15.50;1.00;;;;;;5097008;28;20387;-81
2023/09/02 05:58:53;;;;;;;4.07;2.15;;;15.50;1.00;;;;;;5095421;28;20726;-81
2023/09/02 06:01:18;;;;;;;2.23;1.70;;;15.50;1.00;;;;;;5096484;28;20386;-82
2023/09/02 06:03:44;;;;;;;2.15;1.70;;;15.50;1.00;;;;;;5096099;28;20394;-81
2023/09/02 06:06:13;;;;;;;3.80;1.80;;;15.60;1.00;;;;;;5090221;28;20400;-81
2023/09/02 06:08:39;;;;;;;3.20;1.53;;;15.70;1.00;;;;;;5076353;28;20399;-81
2023/09/02 06:11:05;;;;;;;2.22;1.90;;;15.80;1.00;;;;;;5076666;28;20383;-82
2023/09/02 06:13:31;;;;;;;1.73;1.63;;;15.90;1.00;;;;;;5076114;28;20388;-82
2023/09/02 06:16:02;;;;;;;3.53;1.75;;;15.90;1.00;;;;;;5076364;28;20395;-81
2023/09/02 06:18:28;;;;;;;1.90;1.80;;;16.00;1.00;;;;;;5074575;28;20396;-81
2023/09/02 06:20:54;;;;;;;2.78;2.15;;;16.10;1.00;;;;;;5075284;28;20399;-81
2023/09/02 06:23:20;;;;;;;3.00;2.03;;;16.20;1.00;;;;;;5091871;28;20386;-81
2023/09/02 06:25:55;;;;;;;4.33;2.00;;;16.20;1.00;;;;;;5094270;28;20866;-82
2023/09/02 06:28:20;;;;;;;2.13;1.80;;;16.30;1.00;;;;;;5096441;28;20400;-81
2023/09/02 06:30:46;;;;;;;3.70;2.10;;;16.30;1.00;;;;;;5094608;28;20382;-81
2023/09/02 06:33:11;;;;;;;3.90;1.80;;;16.30;1.00;;;;;;5094989;28;20393;-82
2023/09/02 06:35:37;;;;;;;2.70;1.90;;;16.50;1.00;;;;;;5097407;28;21475;-82
2023/09/02 06:38:03;;;;;;;2.72;1.90;;;16.60;1.00;;;;;;5096670;28;20446;-81
2023/09/02 06:40:32;;;;;;;2.15;1.95;;;16.70;1.00;;;;;;5087347;28;20400;-82
2023/09/02 06:42:57;;;;;;;2.55;1.95;;;16.70;1.00;;;;;;5078022;28;20380;-80
2023/09/02 06:45:25;;;;;;;3.28;1.95;;;16.80;1.00;;;;;;5087305;28;20460;-80
2023/09/02 06:47:50;;;;;;;2.60;1.70;;;16.80;1.00;;;;;;5085052;28;20387;-81
2023/09/02 06:50:16;;;;;;;3.63;1.80;;;16.90;1.00;;;;;;5086338;28;20428;-82
2023/09/02 06:52:41;;;;;;;2.20;1.90;;;17.00;1.00;;;;;;5086344;28;20402;-81
2023/09/02 06:55:07;;;;;;;4.67;1.87;;;17.00;1.00;;;;;;5074362;28;20763;-81
2023/09/02 06:57:33;;;;;;;2.80;2.10;;;17.00;1.00;;;;;;5081207;28;20384;-81
2023/09/02 06:59:58;;;;;;;3.92;1.83;;;17.00;1.00;;;;;;5084362;28;20419;-81
2023/09/02 07:02:24;;;;;;;3.83;1.90;;;17.00;1.00;;;;;;5080466;28;20400;-81
2023/09/02 07:04:49;;;;;;;4.80;2.10;;;17.00;1.00;;;;;;5091828;28;20402;-80
2023/09/02 07:07:16;;;;;;;3.40;1.80;;;17.00;1.00;;;;;;5097647;28;20457;-80
2023/09/02 07:09:41;;;;;;;2.72;2.13;;;17.00;1.00;;;;;;5097419;28;20394;-81
2023/09/02 07:12:07;;;;;;;3.13;1.77;;;17.10;1.00;;;;;;5097080;28;20511;-81
2023/09/02 07:14:33;;;;;;;3.20;1.80;;;17.20;1.00;;;;;;5096574;28;20874;-81
2023/09/02 07:16:58;;;;;;;3.47;1.80;;;17.20;1.00;;;;;;5096257;28;20889;-81
2023/09/02 07:19:24;;;;;;;2.20;1.80;;;17.30;1.00;;;;;;5078043;28;20400;-81
2023/09/02 07:21:50;;;;;;;2.10;1.70;;;17.30;1.00;;;;;;5075610;28;20395;-80
2023/09/02 07:24:16;;;;;;;1.87;1.67;;;17.20;1.00;;;;;;5076162;28;20779;-82
2023/09/02 07:26:41;;;;;;;2.70;1.80;;;17.50;1.00;;;;;;5074913;28;20391;-82
2023/09/02 07:29:07;;;;;;;1.75;1.60;;;17.60;1.00;;;;;;5073483;28;20430;-81
2023/09/02 07:31:33;;;;;;;2.90;1.90;;;17.70;1.00;;;;;;5073715;28;20395;-81
2023/09/02 07:33:58;;;;;;;2.28;2.08;;;17.70;1.00;;;;;;5075062;28;20392;-82
2023/09/02 07:36:24;;;;;;;3.20;2.10;;;17.80;1.00;;;;;;5075761;28;20414;-82
2023/09/02 07:38:50;;;;;;;2.10;1.80;;;18.00;1.00;;;;;;5073656;28;20435;-83
2023/09/02 07:41:15;;;;;;;1.80;1.70;;;18.10;1.00;;;;;;5074324;28;20401;-81
2023/09/02 07:43:41;;;;;;;2.60;1.90;;;18.20;1.00;;;;;;5074602;28;20388;-82
2023/09/02 07:46:09;;;;;;;3.00;1.77;;;18.30;1.00;;;;;;5075536;28;20410;-82
2023/09/02 07:48:34;;;;;;;2.20;2.00;;;18.40;1.00;;;;;;5074336;28;20407;-82
2023/09/02 07:51:00;;;;;;;2.10;1.90;;;18.50;1.00;;;;;;5075381;28;20818;-83
2023/09/02 07:53:26;;;;;;;3.33;2.10;;;18.50;1.00;;;;;;5074281;28;20468;-83
2023/09/02 07:55:52;;;;;;;4.45;2.10;;;18.70;1.00;;;;;;5073653;28;20929;-82
2023/09/02 07:58:17;;;;;;;3.67;1.98;;;18.80;1.00;;;;;;5078465;28;20407;-81
2023/09/02 08:00:43;;;;;;;2.00;1.70;;;18.80;1.00;;;;;;5085026;28;20752;-81
2023/09/02 08:03:08;;;;;;;4.53;2.05;;;19.10;1.00;;;;;;5102868;28;20383;-81
2023/09/02 08:05:38;;;;;;;2.80;2.10;;;19.50;1.00;;;;;;5109595;28;20382;-80
2023/09/02 08:08:04;;;;;;;2.67;2.00;;;19.60;1.00;;;;;;5100482;28;20422;-82
2023/09/02 08:10:29;;;;;;;7.83;2.10;;;19.60;1.00;;;;;;5094004;28;20409;-82
2023/09/02 08:12:55;;;;;;;4.18;2.58;;;19.70;1.00;;;;;;5098074;28;20462;-80
2023/09/02 08:15:21;;;;;;;2.60;2.20;;;19.70;1.00;;;;;;5086049;28;20410;-81
2023/09/02 08:17:47;;;;;;;2.33;1.83;;;19.80;1.00;;;;;;5107590;22;20621;-85
2023/09/02 08:20:14;;;;;;;2.97;1.80;;;19.60;1.00;;;;;;5094373;28;20773;-85
2023/09/02 08:22:42;;;;;;;4.43;2.40;;;19.80;1.00;;;;;;5098181;28;20431;-84
2023/09/02 08:25:08;;;;;;;3.30;1.95;;;19.70;1.00;;;;;;5075698;28;20384;-84
2023/09/02 08:27:34;;;;;;;3.20;2.10;;;19.90;1.00;;;;;;5075699;28;20386;-85
2023/09/02 08:29:59;;;;;;;3.30;2.20;;;20.00;1.00;;;;;;5074245;28;20434;-85
2023/09/02 08:32:28;;;;;;;2.95;2.20;;;20.20;1.00;;;;;;5076142;28;20395;-85
2023/09/02 08:34:53;;;;;;;3.70;2.00;;;20.20;1.00;;;;;;5090226;28;20394;-85
2023/09/02 08:37:19;;;;;;;4.45;2.40;;;20.40;1.00;;;;;;5090227;28;20384;-85
2023/09/02 08:39:44;;;;;;;2.40;2.10;;;19.60;1.00;;;;;;5073849;28;20526;-85
2023/09/02 08:42:16;;;;;;;2.30;2.10;;;20.60;1.00;;;;;;5084074;28;20413;-85
2023/09/02 08:44:41;;;;;;;5.38;2.30;;;20.80;1.00;;;;;;5075046;28;20431;-84
2023/09/02 08:47:07;;;;;;;3.40;2.50;;;20.90;1.00;;;;;;5073609;28;20433;-85
2023/09/02 08:49:34;;;;;;;5.00;2.00;;;21.10;1.00;;;;;;5074812;28;20893;-85
2023/09/02 08:52:00;;;;;;;4.03;2.20;;;20.90;1.00;;;;;;5093977;28;20418;-85
2023/09/02 08:54:27;;;;;;;2.70;1.80;;;21.50;1.00;;;;;;5116203;28;20382;-85
2023/09/02 08:56:56;;;;;;;3.10;2.20;;;21.00;1.00;;;;;;5116423;28;20397;-85
2023/09/02 08:59:23;;;;;;;3.38;2.10;;;20.10;1.00;;;;;;5095784;28;20417;-85
2023/09/02 09:01:50;;;;;;;2.92;2.08;;;21.30;1.00;;;;;;5085742;28;20842;-85
2023/09/02 09:04:17;;;;;;;3.13;2.03;;;20.70;1.00;;;;;;5078542;28;20525;-85
2023/09/02 09:06:43;;;;;;;2.28;2.05;;;21.40;1.00;;;;;;5073860;28;20392;-85
2023/09/02 09:09:10;;;;;;;2.23;2.03;;;21.50;1.00;;;;;;5074709;28;20400;-85
2023/09/02 09:11:39;;;;;;;2.80;2.10;;;21.70;1.00;;;;;;5094735;28;20906;-85
2023/09/02 09:14:09;;;;;;;4.30;2.40;;;21.70;1.00;;;;;;5094449;28;20391;-85
2023/09/02 09:16:38;;;;;;;2.03;1.80;;;21.60;1.00;;;;;;5076087;28;20478;-85
2023/09/02 09:19:04;;;;;;;2.17;1.90;;;21.80;1.00;;;;;;5080072;28;20384;-85
2023/09/02 09:21:30;;;;;;;3.07;2.17;;;22.10;1.00;;;;;;5078246;28;20472;-85
2023/09/02 09:23:55;;;;;;;3.63;2.20;;;21.70;1.00;;;;;;5075593;28;20824;-85
2023/09/02 09:26:23;;;;;;;3.30;2.40;;;22.00;1.00;;;;;;5080882;28;20477;-84
2023/09/02 09:28:58;;;;;;;2.30;2.10;;;22.00;1.00;;;;;;5096601;28;20397;-85
2023/09/02 09:31:24;;;;;;;1.83;1.70;;;22.20;1.00;;;;;;5097572;28;20436;-85
2023/09/02 09:33:55;;;;;;;2.40;1.80;;;22.10;1.00;;;;;;5083712;28;20457;-85
2023/09/02 09:36:22;;;;;;;2.65;1.90;;;22.40;1.00;;;;;;5079578;28;20384;-85
2023/09/02 09:39:08;;;;;;;3.58;2.13;;;22.30;1.00;;;;;;5076772;28;20806;-84
2023/09/02 09:41:35;;;;;;;3.10;2.10;;;23.60;1.00;;;;;;5075937;28;20891;-85
2023/09/02 09:44:10;;;;;;;2.07;1.87;;;22.60;1.00;;;;;;5094394;28;20401;-85
2023/09/02 09:46:49;;;;;;;4.70;1.80;;;22.50;1.00;;;;;;5101256;28;20721;-84
2023/09/02 09:49:25;;;;;;;3.90;2.10;;;22.50;1.00;;;;;;5105685;28;20386;-85
2023/09/02 09:52:06;;;;;;;1.90;1.50;;;22.50;1.00;;;;;;5112965;28;20414;-85
2023/09/02 09:54:48;;;;;;;2.10;1.80;;;22.60;1.00;;;;;;5079818;28;20383;-85
2023/09/02 09:57:35;;;;;;;5.32;2.10;;;22.80;1.00;;;;;;5077372;28;20435;-85
2023/09/02 10:00:01;;;;;;;2.60;2.00;;;22.90;1.00;;;;;;5067544;28;20441;-84
2023/09/02 10:02:27;;;;;;;2.80;1.80;;;22.90;1.00;;;;;;5077080;28;20388;-85
2023/09/02 10:05:01;;;;;;;2.30;1.50;;;23.10;1.00;;;;;;5075858;28;20879;-85
2023/09/02 10:07:31;;;;;;;2.45;1.70;;;23.30;1.00;;;;;;5076241;28;20416;-84
2023/09/02 10:10:00;;;;;;;3.17;1.80;;;23.50;1.00;;;;;;5076488;28;20399;-84
2023/09/02 10:12:27;;;;;;;3.00;1.70;;;23.50;1.00;;;;;;5096803;28;20448;-85
2023/09/02 10:14:53;;;;;;;1.90;1.50;;;23.20;1.00;;;;;;5098260;28;20374;-85
2023/09/02 10:17:19;;;;;;;1.93;1.50;;;23.70;1.00;;;;;;5097493;28;20384;-84
2023/09/02 10:19:46;;;;;;;4.00;1.70;;;23.70;1.00;;;;;;5095015;28;20480;-85
2023/09/02 10:22:20;;;;;;;2.00;1.60;;;23.90;1.00;;;;;;5093642;28;20765;-85
2023/09/02 10:25:18;;;;;;;1.70;1.40;;;24.30;1.00;;;;;;5094293;28;20388;-85
2023/09/02 10:27:49;;;;;;;1.80;1.70;;;24.40;1.00;;;;;;5095983;28;20452;-85
2023/09/02 10:30:25;;;;;;;2.00;1.60;;;24.40;1.00;;;;;;5088980;28;20404;-85
2023/09/02 10:32:59;;;;;;;1.92;1.63;;;24.50;1.00;;;;;;5084075;28;20449;-86
2023/09/02 10:35:30;;;;;;;2.88;1.80;;;24.60;1.00;;;;;;5082171;28;20395;-85
2023/09/02 10:38:00;;;;;;;2.10;1.80;;;25.40;1.00;;;;;;5075528;28;20451;-85
2023/09/02 10:40:43;;;;;;;2.15;1.60;;;24.60;1.00;;;;;;5090569;28;20386;-85
2023/09/02 10:43:09;;;;;;;4.03;2.10;;;24.80;1.00;;;;;;5084840;28;20384;-84
2023/09/02 10:45:36;;;;;;;2.38;1.88;;;24.90;1.00;;;;;;5073228;28;20396;-85
2023/09/02 10:48:02;;;;;;;2.50;1.70;;;25.00;1.00;;;;;;5074578;28;20416;-87
2023/09/02 10:50:29;;;;;;;1.90;1.60;;;25.00;1.00;;;;;;5072001;28;20426;-84
2023/09/02 10:52:55;;;;;;;1.70;1.50;;;25.10;1.00;;;;;;5084059;28;20384;-85
2023/09/02 10:55:21;;;;;;;2.10;1.50;;;25.30;1.00;;;;;;5073624;28;20388;-85
2023/09/02 10:57:56;;;;;;;3.10;1.80;;;25.30;1.00;;;;;;5075284;28;20386;-85
2023/09/02 11:00:22;;;;;;;2.53;1.60;;;26.00;1.00;;;;;;5093964;28;20758;-86
2023/09/02 11:02:51;;;;;;;2.10;1.60;;;25.40;1.00;;;;;;5092646;28;20828;-85
2023/09/02 11:05:17;;;;;;;2.70;1.65;;;25.50;1.00;;;;;;5093702;28;20940;-85
2023/09/02 11:07:42;;;;;;;3.70;1.80;;;25.60;1.00;;;;;;5077033;28;20435;-85
2023/09/02 11:10:09;;;;;;;2.38;1.48;;;25.80;1.00;;;;;;5082319;28;20404;-86
2023/09/02 11:12:55;;;;;;;2.40;1.80;;;25.70;1.00;;;;;;5096842;28;20440;-85
2023/09/02 11:15:20;;;;;;;3.03;1.73;;;26.20;1.00;;;;;;5091816;28;20386;-87
2023/09/02 11:17:46;;;;;;;3.13;2.03;;;26.20;1.00;;;;;;5092063;28;20892;-85
2023/09/02 11:20:13;;;;;;;2.72;1.80;;;26.60;1.00;;;;;;5086082;28;20396;-86
2023/09/02 11:22:48;;;;;;;3.55;1.95;;;26.30;1.00;;;;;;5071550;28;20395;-85
2023/09/02 11:25:27;;;;;;;2.30;1.77;;;26.60;1.00;;;;;;5072173;28;20910;-86
2023/09/02 11:27:55;;;;;;;2.70;1.50;;;26.30;1.00;;;;;;5086143;28;20376;-86
2023/09/02 11:30:21;;;;;;;1.92;1.60;;;26.50;1.00;;;;;;5090231;28;20952;-86
2023/09/02 11:32:48;;;;;;;2.50;1.70;;;27.40;1.00;;;;;;5089316;28;20388;-87
2023/09/02 11:35:21;;;;;;;1.90;1.60;;;27.20;1.00;;;;;;5088366;28;20392;-86
2023/09/02 11:37:46;;;;;;;2.30;1.77;;;28.00;1.00;;;;;;5098348;28;20428;-86
2023/09/02 11:40:14;;;;;;;2.10;1.50;;;28.30;1.00;;;;;;5097196;28;20382;-86
2023/09/02 11:43:00;;;;;;;1.50;1.40;;;28.90;1.00;;;;;;5089202;28;20763;-85
2023/09/02 11:45:37;;;;;;;1.75;1.42;;;29.60;1.00;;;;;;5072389;28;20388;-85
2023/09/02 11:48:04;;;;;;;2.50;1.50;;;29.70;1.00;;;;;;5072936;28;20470;-86
2023/09/02 11:50:29;;;;;;;2.27;1.50;;;29.90;1.00;;;;;;5072674;28;20418;-87
2023/09/02 11:52:57;;;;;;;2.10;1.25;;;29.50;1.00;;;;;;5073941;28;20388;-87
2023/09/02 11:55:24;;;;;;;1.70;1.20;;;29.70;1.00;;;;;;5073401;28;20416;-87
2023/09/02 11:57:50;;;;;;;1.80;1.57;;;28.40;1.00;;;;;;5084005;28;20396;-85
2023/09/02 12:00:21;;;;;;;2.10;1.30;;;29.40;1.00;;;;;;5095747;28;20403;-86
2023/09/02 12:02:48;;;;;;;1.73;1.40;;;29.90;1.00;;;;;;5097096;28;20418;-88
2023/09/02 12:05:14;;;;;;;2.20;1.50;;;29.60;1.00;;;;;;5096843;28;20475;-86
2023/09/02 12:07:45;;;;;;;2.70;1.60;;;29.10;1.00;;;;;;5097939;28;20396;-86
2023/09/02 12:10:15;;;;;;;1.70;1.60;;;29.70;1.00;;;;;;5090810;28;20415;-86
2023/09/02 12:12:46;;;;;;;1.75;1.42;;;29.40;1.00;;;;;;5092742;28;20386;-86
2023/09/02 12:15:17;;;;;;;2.25;1.40;;;28.80;1.00;;;;;;5096832;28;20391;-86
2023/09/02 12:17:43;;;;;;;3.30;1.50;;;28.80;1.00;;;;;;5077774;28;20454;-87
2023/09/02 12:20:11;;;;;;;2.08;1.52;;;28.80;1.00;;;;;;5073860;28;20403;-87
2023/09/02 12:22:37;;;;;;;2.33;1.60;;;28.70;1.00;;;;;;5076661;28;20909;-87
2023/09/02 12:25:12;;;;;;;2.88;1.45;;;28.60;1.00;;;;;;5093159;28;20394;-86
2023/09/02 12:27:38;;;;;;;2.00;1.58;;;28.40;1.00;;;;;;5094066;28;20397;-84
2023/09/02 12:30:04;;;;;;;2.30;1.87;;;29.00;1.00;;;;;;5099036;28;20397;-85
2023/09/02 12:32:30;;;;;;;2.08;1.50;;;29.00;1.00;;;;;;5105278;28;20389;-85
2023/09/02 12:34:56;;;;;;;1.60;1.38;;;29.00;1.00;;;;;;5105697;28;20392;-87
2023/09/02 12:37:22;;;;;;;1.60;1.50;;;29.20;1.00;;;;;;5102175;28;20815;-85
2023/09/02 12:39:51;;;;;;;1.88;1.30;;;29.00;1.00;;;;;;5102697;28;20398;-85
2023/09/02 12:42:24;;;;;;;2.50;1.58;;;28.90;1.00;;;;;;5091704;28;20391;-84
2023/09/02 12:44:51;;;;;;;2.35;1.50;;;29.10;1.00;;;;;;5095465;28;20400;-85
2023/09/02 12:47:20;;;;;;;2.92;1.63;;;28.60;1.00;;;;;;5081728;28;20403;-84
2023/09/02 12:49:47;;;;;;;2.20;1.60;;;28.90;1.00;;;;;;5078019;28;20400;-85
2023/09/02 12:52:19;;;;;;;3.05;1.60;;;28.50;1.00;;;;;;5087221;28;20394;-84
2023/09/02 12:54:55;;;;;;;2.30;1.50;;;28.70;1.00;;;;;;5092571;28;20382;-84
2023/09/02 12:57:35;;;;;;;2.25;1.60;;;28.50;1.00;;;;;;5091731;28;20443;-84
2023/09/02 13:00:02;;;;;;;2.03;1.50;;;28.80;1.00;;;;;;5076589;28;20398;-84